Time;durP1;ratioP1;P1;durP2;ratioP2;P2;SDS_P1;SDS_P2;PMS_P1;PMS_P2;Temp;Humidity;BMP_temperature;BMP_pressure;BME280_temperature;BME280_humidity;BME280_pressure;Samples;Min_cycle;Max_cycle;Signal;HPM_P1;HPM_P2
2023/06/21 00:01:18;;;;;;;7.85;7.03;;;;;;;;;;5085761;28;20197;-71
2023/06/21 00:03:44;;;;;;;8.18;7.30;;;;;;;;;;5085845;28;20204;-71
2023/06/21 00:06:10;;;;;;;11.90;8.20;;;;;;;;;;5085722;28;20196;-71
2023/06/21 00:08:38;;;;;;;9.38;7.70;;;;;;;;;;5085525;28;20204;-71
2023/06/21 00:11:04;;;;;;;14.00;7.70;;;;;;;;;;5085601;28;20224;-71
2023/06/21 00:13:32;;;;;;;10.43;7.40;;;;;;;;;;5085533;28;20202;-71
2023/06/21 00:15:58;;;;;;;10.73;7.80;;;;;;;;;;5085411;28;20215;-71
2023/06/21 00:18:25;;;;;;;10.77;7.28;;;;;;;;;;5085415;28;20203;-71
2023/06/21 00:20:51;;;;;;;12.07;7.53;;;;;;;;;;5085494;28;20395;-71
2023/06/21 00:23:18;;;;;;;9.30;7.88;;;;;;;;;;5085372;28;20204;-71
2023/06/21 00:25:44;;;;;;;11.32;7.57;;;;;;;;;;5085485;28;20492;-71
2023/06/21 00:28:10;;;;;;;11.27;7.57;;;;;;;;;;5085037;28;20396;-71
2023/06/21 00:30:38;;;;;;;9.50;7.82;;;;;;;;;;5085207;28;20558;-71
2023/06/21 00:33:04;;;;;;;8.70;7.50;;;;;;;;;;5085512;28;20196;-72
2023/06/21 00:35:30;;;;;;;8.18;7.38;;;;;;;;;;5085143;28;20390;-71
2023/06/21 00:37:56;;;;;;;8.10;7.13;;;;;;;;;;5085485;28;20203;-72
2023/06/21 00:40:25;;;;;;;12.63;7.55;;;;;;;;;;5085211;28;20196;-72
2023/06/21 00:42:51;;;;;;;7.85;7.10;;;;;;;;;;5085101;28;20263;-72
2023/06/21 00:45:18;;;;;;;11.52;7.68;;;;;;;;;;5084921;28;20192;-72
2023/06/21 00:47:46;;;;;;;9.18;7.28;;;;;;;;;;5084587;28;20191;-72
2023/06/21 00:50:18;;;;;;;9.95;7.60;;;;;;;;;;5084942;28;20546;-72
2023/06/21 00:52:44;;;;;;;8.85;7.18;;;;;;;;;;5084829;28;20218;-72
2023/06/21 00:55:12;;;;;;;8.98;6.88;;;;;;;;;;5084764;28;20384;-72
2023/06/21 00:57:39;;;;;;;8.40;7.60;;;;;;;;;;5084858;28;20204;-72
2023/06/21 01:00:06;;;;;;;9.07;7.35;;;;;;;;;;5084607;28;20215;-72
2023/06/21 01:02:33;;;;;;;9.95;7.53;;;;;;;;;;5084838;28;20504;-72
2023/06/21 01:05:03;;;;;;;8.73;7.82;;;;;;;;;;5084847;28;20263;-72
2023/06/21 01:07:33;;;;;;;11.07;7.97;;;;;;;;;;5084533;28;20218;-72
2023/06/21 01:10:08;;;;;;;11.70;8.25;;;;;;;;;;5084491;28;20208;-72
2023/06/21 01:12:38;;;;;;;13.18;8.55;;;;;;;;;;5084464;28;20188;-72
2023/06/21 01:15:05;;;;;;;12.57;8.05;;;;;;;;;;5084221;28;20254;-72
2023/06/21 01:17:34;;;;;;;17.30;8.20;;;;;;;;;;5084053;28;20196;-72
2023/06/21 01:20:06;;;;;;;10.18;8.18;;;;;;;;;;5084229;28;20424;-72
2023/06/21 01:22:39;;;;;;;8.90;8.00;;;;;;;;;;5084341;28;20196;-72
2023/06/21 01:25:13;;;;;;;14.00;7.40;;;;;;;;;;5084232;28;20192;-72
2023/06/21 01:27:42;;;;;;;10.18;7.53;;;;;;;;;;5084000;28;20227;-72
2023/06/21 01:30:11;;;;;;;9.20;7.78;;;;;;;;;;5084049;28;20197;-72
2023/06/21 01:32:39;;;;;;;12.10;7.85;;;;;;;;;;5084280;28;20195;-72
2023/06/21 01:35:05;;;;;;;8.23;7.43;;;;;;;;;;5083995;28;20211;-72
2023/06/21 01:37:32;;;;;;;9.30;8.13;;;;;;;;;;5084016;28;20203;-72
2023/06/21 01:39:59;;;;;;;11.98;7.90;;;;;;;;;;5083702;28;20200;-72
2023/06/21 01:42:25;;;;;;;8.93;7.65;;;;;;;;;;5084156;28;20227;-72
2023/06/21 01:44:52;;;;;;;10.80;7.70;;;;;;;;;;5083998;28;20195;-72
2023/06/21 01:47:20;;;;;;;9.25;7.78;;;;;;;;;;5083776;28;20390;-72
2023/06/21 01:49:47;;;;;;;13.20;7.70;;;;;;;;;;5083983;28;20254;-72
2023/06/21 01:52:13;;;;;;;9.88;7.93;;;;;;;;;;5083895;28;20234;-72
2023/06/21 01:54:41;;;;;;;10.50;7.85;;;;;;;;;;5083684;28;20527;-72
2023/06/21 01:57:08;;;;;;;11.45;8.43;;;;;;;;;;5083233;28;20376;-72
2023/06/21 01:59:36;;;;;;;9.07;8.10;;;;;;;;;;5083037;28;20531;-72
2023/06/21 02:02:04;;;;;;;14.07;8.32;;;;;;;;;;5083756;28;20192;-72
2023/06/21 02:04:33;;;;;;;11.82;8.95;;;;;;;;;;5083365;28;20200;-72
2023/06/21 02:07:00;;;;;;;9.43;8.52;;;;;;;;;;5083254;28;20207;-72
2023/06/21 02:09:27;;;;;;;12.05;8.57;;;;;;;;;;5083310;28;20234;-72
2023/06/21 02:11:53;;;;;;;14.70;9.82;;;;;;;;;;5083319;28;20202;-72
2023/06/21 02:14:20;;;;;;;13.73;9.25;;;;;;;;;;5083432;28;20265;-72
2023/06/21 02:16:47;;;;;;;13.13;9.02;;;;;;;;;;5083011;28;20269;-72
2023/06/21 02:19:13;;;;;;;10.43;8.65;;;;;;;;;;5083247;28;20196;-72
2023/06/21 02:21:40;;;;;;;13.15;9.05;;;;;;;;;;5083070;28;20504;-70
2023/06/21 02:24:07;;;;;;;10.43;8.68;;;;;;;;;;5083203;28;20407;-71
2023/06/21 02:26:33;;;;;;;13.90;9.10;;;;;;;;;;5083134;28;20192;-71
2023/06/21 02:28:59;;;;;;;12.20;8.73;;;;;;;;;;5083320;28;20253;-71
2023/06/21 02:31:25;;;;;;;10.60;8.50;;;;;;;;;;5082907;28;20495;-71
2023/06/21 02:33:52;;;;;;;12.02;9.30;;;;;;;;;;5083112;28;20196;-71
2023/06/21 02:36:18;;;;;;;10.50;8.75;;;;;;;;;;5082975;28;20219;-71
2023/06/21 02:38:46;;;;;;;11.10;8.48;;;;;;;;;;5082687;28;20317;-71
2023/06/21 02:41:12;;;;;;;17.75;9.30;;;;;;;;;;5082844;28;20242;-71
2023/06/21 02:43:38;;;;;;;11.63;8.32;;;;;;;;;;5082953;28;20241;-71
2023/06/21 02:46:04;;;;;;;10.30;8.73;;;;;;;;;;5082753;28;20203;-71
2023/06/21 02:48:31;;;;;;;12.90;8.38;;;;;;;;;;5082760;28;20241;-71
2023/06/21 02:50:57;;;;;;;11.23;8.50;;;;;;;;;;5083076;28;20196;-71
2023/06/21 02:53:23;;;;;;;10.02;8.63;;;;;;;;;;5082892;28;20196;-71
2023/06/21 02:55:51;;;;;;;9.25;7.93;;;;;;;;;;5082519;28;20293;-71
2023/06/21 02:58:17;;;;;;;11.50;8.88;;;;;;;;;;5082419;28;20370;-71
2023/06/21 03:00:43;;;;;;;11.05;9.15;;;;;;;;;;5082627;28;20195;-71
2023/06/21 03:03:09;;;;;;;10.50;8.40;;;;;;;;;;5082621;28;20204;-71
2023/06/21 03:05:36;;;;;;;9.88;8.13;;;;;;;;;;5082893;28;20359;-71
2023/06/21 03:08:04;;;;;;;18.58;9.63;;;;;;;;;;5082840;28;20212;-71
2023/06/21 03:10:32;;;;;;;10.23;8.50;;;;;;;;;;5081961;28;20196;-71
2023/06/21 03:13:00;;;;;;;11.00;8.88;;;;;;;;;;5082632;28;20199;-71
2023/06/21 03:15:26;;;;;;;12.18;9.00;;;;;;;;;;5082626;28;20223;-71
2023/06/21 03:17:53;;;;;;;10.95;8.82;;;;;;;;;;5082719;28;20208;-71
2023/06/21 03:20:19;;;;;;;11.13;8.70;;;;;;;;;;5082529;28;20241;-71
2023/06/21 03:22:46;;;;;;;10.45;9.02;;;;;;;;;;5082595;28;20196;-72
2023/06/21 03:25:12;;;;;;;11.27;8.75;;;;;;;;;;5082612;28;20199;-72
2023/06/21 03:27:39;;;;;;;12.48;10.00;;;;;;;;;;5082397;28;20220;-72
2023/06/21 03:30:10;;;;;;;12.52;8.38;;;;;;;;;;5082327;28;20230;-72
2023/06/21 03:32:37;;;;;;;12.07;8.43;;;;;;;;;;5082625;28;20235;-72
2023/06/21 03:35:03;;;;;;;10.95;9.02;;;;;;;;;;5082252;28;20431;-72
2023/06/21 03:37:30;;;;;;;11.43;8.63;;;;;;;;;;5082239;28;20195;-72
2023/06/21 03:39:56;;;;;;;9.68;8.55;;;;;;;;;;5081999;28;20257;-72
2023/06/21 03:42:22;;;;;;;11.60;8.25;;;;;;;;;;5082328;28;20492;-72
2023/06/21 03:44:48;;;;;;;10.32;9.30;;;;;;;;;;5082574;28;20334;-72
2023/06/21 03:47:16;;;;;;;13.15;9.50;;;;;;;;;;5082310;28;20365;-72
2023/06/21 03:49:42;;;;;;;14.35;10.85;;;;;;;;;;5082046;28;20503;-72
2023/06/21 03:52:08;;;;;;;16.48;10.50;;;;;;;;;;5082161;28;20283;-72
2023/06/21 03:54:35;;;;;;;16.83;9.70;;;;;;;;;;5082072;28;20204;-72
2023/06/21 03:57:01;;;;;;;11.38;10.18;;;;;;;;;;5082188;28;20437;-72
2023/06/21 03:59:27;;;;;;;13.57;10.20;;;;;;;;;;5082315;28;20227;-72
2023/06/21 04:01:53;;;;;;;15.45;10.75;;;;;;;;;;5082433;28;20200;-72
2023/06/21 04:04:24;;;;;;;11.18;10.00;;;;;;;;;;5082154;28;20197;-72
2023/06/21 04:06:50;;;;;;;14.43;9.25;;;;;;;;;;5082057;28;20192;-72
2023/06/21 04:09:16;;;;;;;13.80;9.25;;;;;;;;;;5082049;28;20238;-72
2023/06/21 04:11:42;;;;;;;13.15;9.43;;;;;;;;;;5082339;28;20241;-72
2023/06/21 04:14:09;;;;;;;14.45;9.43;;;;;;;;;;5082316;28;20224;-72
2023/06/21 04:16:35;;;;;;;17.17;9.82;;;;;;;;;;5081977;28;20664;-71
2023/06/21 04:19:01;;;;;;;14.27;9.80;;;;;;;;;;5081329;28;20430;-71
2023/06/21 04:21:29;;;;;;;11.88;9.75;;;;;;;;;;5082755;28;20200;-71
2023/06/21 04:23:55;;;;;;;11.43;10.15;;;;;;;;;;5084930;28;20204;-71
2023/06/21 04:26:22;;;;;;;12.32;9.57;;;;;;;;;;5085191;28;20246;-71
2023/06/21 04:28:49;;;;;;;11.52;9.15;;;;;;;;;;5084790;28;20287;-71
2023/06/21 04:31:15;;;;;;;13.35;9.10;;;;;;;;;;5085077;28;20496;-71
2023/06/21 04:33:42;;;;;;;20.67;15.45;;;;;;;;;;5084893;28;20241;-71
2023/06/21 04:36:08;;;;;;;13.15;11.07;;;;;;;;;;5084672;28;20528;-71
2023/06/21 04:38:36;;;;;;;11.93;9.05;;;;;;;;;;5084263;28;20241;-71
2023/06/21 04:41:02;;;;;;;10.15;8.57;;;;;;;;;;5084602;28;20267;-71
2023/06/21 04:43:28;;;;;;;12.55;8.85;;;;;;;;;;5084894;28;20208;-71
2023/06/21 04:45:54;;;;;;;11.30;8.30;;;;;;;;;;5084595;28;20192;-71
2023/06/21 04:48:24;;;;;;;10.70;8.48;;;;;;;;;;5084296;28;20220;-71
2023/06/21 04:50:50;;;;;;;10.30;7.68;;;;;;;;;;5084376;28;20202;-71
2023/06/21 04:53:16;;;;;;;11.32;8.23;;;;;;;;;;5084433;28;20250;-71
2023/06/21 04:55:45;;;;;;;11.07;8.50;;;;;;;;;;5084402;28;20261;-71
2023/06/21 04:58:12;;;;;;;8.75;7.85;;;;;;;;;;5084292;28;20504;-71
2023/06/21 05:00:38;;;;;;;10.55;8.02;;;;;;;;;;5084256;28;20402;-71
2023/06/21 05:03:04;;;;;;;10.35;7.55;;;;;;;;;;5084412;28;20211;-71
2023/06/21 05:05:31;;;;;;;14.95;9.02;;;;;;;;;;5084032;28;20200;-71
2023/06/21 05:07:57;;;;;;;12.73;9.30;;;;;;;;;;5084041;28;20208;-71
2023/06/21 05:10:23;;;;;;;15.52;9.73;;;;;;;;;;5084165;28;20249;-71
2023/06/21 05:12:51;;;;;;;15.70;9.27;;;;;;;;;;5084036;28;20219;-71
2023/06/21 05:15:17;;;;;;;14.68;10.20;;;;;;;;;;5083976;28;20234;-71
2023/06/21 05:17:43;;;;;;;17.63;10.13;;;;;;;;;;5083854;28;20220;-71
2023/06/21 05:20:10;;;;;;;17.30;12.18;;;;;;;;;;5078112;28;20451;-71
2023/06/21 05:22:36;;;;;;;19.40;11.18;;;;;;;;;;5077415;28;20214;-71
2023/06/21 05:25:04;;;;;;;18.13;10.75;;;;;;;;;;5078848;28;20270;-61
2023/06/21 05:27:30;;;;;;;21.60;11.70;;;;;;;;;;5078613;28;20251;-61
2023/06/21 05:29:58;;;;;;;19.25;10.82;;;;;;;;;;5078336;28;20515;-61
2023/06/21 05:32:25;;;;;;;21.52;11.20;;;;;;;;;;5078674;28;20569;-61
2023/06/21 05:34:51;;;;;;;19.40;11.48;;;;;;;;;;5078942;28;20214;-61
2023/06/21 05:37:18;;;;;;;21.33;12.18;;;;;;;;;;5075914;28;20482;-60
2023/06/21 05:39:44;;;;;;;19.25;11.50;;;;;;;;;;5074906;28;20282;-60
2023/06/21 05:42:10;;;;;;;16.02;9.55;;;;;;;;;;5075190;28;20212;-60
2023/06/21 05:44:37;;;;;;;12.77;9.93;;;;;;;;;;5075265;28;20258;-60
2023/06/21 05:47:04;;;;;;;17.45;9.77;;;;;;;;;;5075424;28;20238;-61
2023/06/21 05:49:31;;;;;;;19.20;10.07;;;;;;;;;;5075378;28;20253;-61
2023/06/21 05:51:57;;;;;;;11.85;9.80;;;;;;;;;;5075417;28;20204;-61
2023/06/21 05:54:23;;;;;;;18.52;9.57;;;;;;;;;;5075692;28;20534;-62
2023/06/21 05:56:50;;;;;;;20.48;10.73;;;;;;;;;;5077817;28;20262;-62
2023/06/21 05:59:16;;;;;;;20.77;10.40;;;;;;;;;;5077036;28;20412;-61
2023/06/21 06:01:42;;;;;;;17.90;11.20;;;;;;;;;;5076716;28;20450;-61
2023/06/21 06:04:10;;;;;;;18.25;11.00;;;;;;;;;;5077380;28;20675;-61
2023/06/21 06:06:38;;;;;;;35.17;11.88;;;;;;;;;;5076924;28;20216;-61
2023/06/21 06:09:04;;;;;;;25.30;10.23;;;;;;;;;;5077971;28;20219;-60
2023/06/21 06:11:31;;;;;;;18.40;11.13;;;;;;;;;;5078321;28;20219;-60
2023/06/21 06:13:57;;;;;;;25.88;10.27;;;;;;;;;;5077880;28;20249;-61
2023/06/21 06:16:23;;;;;;;16.98;10.48;;;;;;;;;;5077632;28;20269;-61
2023/06/21 06:18:49;;;;;;;14.82;9.95;;;;;;;;;;5076380;28;20230;-61
2023/06/21 06:21:21;;;;;;;17.08;9.93;;;;;;;;;;5076972;28;20215;-61
2023/06/21 06:23:47;;;;;;;18.58;9.65;;;;;;;;;;5077251;28;20279;-62
2023/06/21 06:26:13;;;;;;;15.20;10.27;;;;;;;;;;5076523;28;20230;-61
2023/06/21 06:28:40;;;;;;;18.73;10.45;;;;;;;;;;5076153;28;20223;-60
2023/06/21 06:31:06;;;;;;;14.43;10.35;;;;;;;;;;5077259;28;20203;-61
2023/06/21 06:33:32;;;;;;;20.02;10.05;;;;;;;;;;5076300;28;20454;-60
2023/06/21 06:35:58;;;;;;;19.65;10.43;;;;;;;;;;5076598;28;20539;-61
2023/06/21 06:38:26;;;;;;;21.08;10.15;;;;;;;;;;5075906;28;20211;-61
2023/06/21 06:40:52;;;;;;;19.48;10.25;;;;;;;;;;5076837;28;20550;-61
2023/06/21 06:43:18;;;;;;;21.25;12.57;;;;;;;;;;5076137;28;20212;-61
2023/06/21 06:45:45;;;;;;;17.42;10.13;;;;;;;;;;5076117;28;20224;-61
2023/06/21 06:48:11;;;;;;;10.32;8.73;;;;;;;;;;5078007;28;20208;-60
2023/06/21 06:50:38;;;;;;;17.00;9.23;;;;;;;;;;5076660;28;20212;-61
2023/06/21 06:53:05;;;;;;;13.95;8.80;;;;;;;;;;5077260;28;20527;-60
2023/06/21 06:55:32;;;;;;;12.57;9.43;;;;;;;;;;5076955;28;20443;-60
2023/06/21 06:57:59;;;;;;;17.30;9.27;;;;;;;;;;5076292;28;20232;-61
2023/06/21 07:00:25;;;;;;;15.57;8.63;;;;;;;;;;5076886;28;20456;-61
2023/06/21 07:02:56;;;;;;;12.10;8.38;;;;;;;;;;5076720;28;20438;-61
2023/06/21 07:05:22;;;;;;;14.57;8.25;;;;;;;;;;5078314;28;20254;-61
2023/06/21 07:07:48;;;;;;;13.57;8.02;;;;;;;;;;5077239;28;20216;-61
2023/06/21 07:10:15;;;;;;;11.98;8.10;;;;;;;;;;5075435;28;20251;-60
2023/06/21 07:12:42;;;;;;;15.30;8.57;;;;;;;;;;5076262;28;20215;-60
2023/06/21 07:15:09;;;;;;;11.32;7.55;;;;;;;;;;5077145;28;20253;-60
2023/06/21 07:17:35;;;;;;;10.77;7.07;;;;;;;;;;5077176;28;20384;-61
2023/06/21 07:20:01;;;;;;;12.48;7.40;;;;;;;;;;5076599;28;20580;-61
2023/06/21 07:22:27;;;;;;;8.10;7.25;;;;;;;;;;5076738;28;20200;-61
2023/06/21 07:24:54;;;;;;;7.72;7.03;;;;;;;;;;5077118;28;20229;-61
2023/06/21 07:27:21;;;;;;;9.57;7.88;;;;;;;;;;5075318;28;20224;-61
2023/06/21 07:29:48;;;;;;;9.98;7.35;;;;;;;;;;5075545;28;20523;-61
2023/06/21 07:32:14;;;;;;;9.07;7.30;;;;;;;;;;5076449;28;20212;-61
2023/06/21 07:34:41;;;;;;;6.50;5.25;;;;;;;;;;5075670;28;20208;-60
2023/06/21 07:37:07;;;;;;;7.10;6.32;;;;;;;;;;5075554;28;20273;-61
2023/06/21 07:39:33;;;;;;;6.90;5.30;;;;;;;;;;5076155;28;20211;-61
2023/06/21 07:42:04;;;;;;;11.02;5.30;;;;;;;;;;5075985;28;20216;-61
2023/06/21 07:44:30;;;;;;;6.88;5.20;;;;;;;;;;5076322;28;20208;-61
2023/06/21 07:46:58;;;;;;;8.48;5.20;;;;;;;;;;5075217;28;20204;-61
2023/06/21 07:49:24;;;;;;;9.18;5.28;;;;;;;;;;5057513;28;20201;-61
2023/06/21 07:51:51;;;;;;;6.25;5.53;;;;;;;;;;5075739;28;20489;-61
2023/06/21 07:54:17;;;;;;;12.07;5.82;;;;;;;;;;5074925;28;20419;-61
2023/06/21 07:56:43;;;;;;;7.28;6.03;;;;;;;;;;5076312;28;20285;-61
2023/06/21 07:59:09;;;;;;;7.38;5.90;;;;;;;;;;5078876;28;20219;-61
2023/06/21 08:01:36;;;;;;;7.43;5.45;;;;;;;;;;5079498;28;20265;-60
2023/06/21 08:04:03;;;;;;;12.38;5.78;;;;;;;;;;5078658;28;20390;-61
2023/06/21 08:06:30;;;;;;;9.65;6.13;;;;;;;;;;5079587;28;20208;-60
2023/06/21 08:08:56;;;;;;;8.68;5.03;;;;;;;;;;5079021;28;20227;-60
2023/06/21 08:11:22;;;;;;;4.40;4.10;;;;;;;;;;5079093;28;20212;-61
2023/06/21 08:13:48;;;;;;;5.03;4.50;;;;;;;;;;5078806;28;20215;-61
2023/06/21 08:16:14;;;;;;;6.03;3.92;;;;;;;;;;5078833;28;20211;-61
2023/06/21 08:18:43;;;;;;;4.18;3.78;;;;;;;;;;5079533;28;20227;-61
2023/06/21 08:21:10;;;;;;;4.63;4.22;;;;;;;;;;5074555;28;20212;-61
2023/06/21 08:23:36;;;;;;;5.75;5.15;;;;;;;;;;5060064;28;20255;-61
2023/06/21 08:26:03;;;;;;;7.85;4.60;;;;;;;;;;5072947;28;20216;-61
2023/06/21 08:28:30;;;;;;;6.85;4.75;;;;;;;;;;5077867;28;20220;-61
2023/06/21 08:30:57;;;;;;;5.60;4.78;;;;;;;;;;5078265;28;20473;-61
2023/06/21 08:33:23;;;;;;;7.00;4.90;;;;;;;;;;5078151;28;20512;-61
2023/06/21 08:35:49;;;;;;;5.07;4.13;;;;;;;;;;5078763;28;20204;-61
2023/06/21 08:38:17;;;;;;;7.30;5.00;;;;;;;;;;5078863;28;20231;-61
2023/06/21 08:40:43;;;;;;;15.68;5.50;;;;;;;;;;5079043;28;20239;-61
2023/06/21 08:43:10;;;;;;;8.85;6.65;;;;;;;;;;5080312;28;20219;-61
2023/06/21 08:45:36;;;;;;;9.65;6.65;;;;;;;;;;5077601;28;20257;-61
2023/06/21 08:48:05;;;;;;;9.27;6.80;;;;;;;;;;5078364;28;20215;-61
2023/06/21 08:50:34;;;;;;;8.07;6.28;;;;;;;;;;5077719;28;20267;-61
2023/06/21 08:53:01;;;;;;;6.57;5.55;;;;;;;;;;5078633;28;20226;-61
2023/06/21 08:55:30;;;;;;;7.43;6.57;;;;;;;;;;5077272;28;20212;-61
2023/06/21 08:57:57;;;;;;;8.80;5.82;;;;;;;;;;5077986;28;20235;-61
2023/06/21 09:00:25;;;;;;;11.05;5.97;;;;;;;;;;5078968;28;20261;-61
2023/06/21 09:02:56;;;;;;;10.02;6.18;;;;;;;;;;5078662;28;20219;-60
2023/06/21 09:05:26;;;;;;;10.88;6.82;;;;;;;;;;5078622;28;20219;-60
2023/06/21 09:07:53;;;;;;;9.20;7.18;;;;;;;;;;5079477;28;20300;-60
2023/06/21 09:10:21;;;;;;;10.52;7.50;;;;;;;;;;5078746;28;20216;-60
2023/06/21 09:12:51;;;;;;;15.27;8.93;;;;;;;;;;5078580;28;20231;-60
2023/06/21 09:15:17;;;;;;;13.27;8.15;;;;;;;;;;5079211;28;20200;-61
2023/06/21 09:17:45;;;;;;;14.07;8.77;;;;;;;;;;5079478;28;20504;-61
2023/06/21 09:20:12;;;;;;;10.60;8.18;;;;;;;;;;5080702;28;20234;-61
2023/06/21 09:22:38;;;;;;;11.40;9.23;;;;;;;;;;5080422;28;20218;-61
2023/06/21 09:25:05;;;;;;;18.73;10.23;;;;;;;;;;5079874;28;20212;-61
2023/06/21 09:27:31;;;;;;;12.43;9.07;;;;;;;;;;5079830;28;20220;-61
2023/06/21 09:29:59;;;;;;;18.20;10.13;;;;;;;;;;5079520;28;20349;-60
2023/06/21 09:32:25;;;;;;;14.25;9.07;;;;;;;;;;5074042;28;20215;-61
2023/06/21 09:34:52;;;;;;;19.88;10.60;;;;;;;;;;5079047;28;20451;-60
2023/06/21 09:37:30;;;;;;;11.90;10.18;;;;;;;;;;5077716;28;20563;-61
2023/06/21 09:39:57;;;;;;;14.65;10.82;;;;;;;;;;5079112;28;20242;-61
2023/06/21 09:42:24;;;;;;;12.05;9.75;;;;;;;;;;5077831;28;20215;-60
2023/06/21 09:44:51;;;;;;;12.68;9.10;;;;;;;;;;5077888;28;20208;-61
2023/06/21 09:47:18;;;;;;;18.15;10.27;;;;;;;;;;5078329;28;20215;-61
2023/06/21 09:49:46;;;;;;;14.40;10.32;;;;;;;;;;5077061;28;20246;-61
2023/06/21 09:52:12;;;;;;;19.05;9.82;;;;;;;;;;5077641;28;20258;-61
2023/06/21 09:54:41;;;;;;;12.52;10.10;;;;;;;;;;5078207;28;20208;-61
2023/06/21 09:57:07;;;;;;;18.13;10.82;;;;;;;;;;5076921;28;20212;-61
2023/06/21 09:59:36;;;;;;;15.25;11.68;;;;;;;;;;5078671;28;20253;-61
2023/06/21 10:02:03;;;;;;;22.65;11.93;;;;;;;;;;5078412;28;20212;-61
2023/06/21 10:04:30;;;;;;;19.38;12.38;;;;;;;;;;5078835;28;20204;-62
2023/06/21 10:06:56;;;;;;;25.92;13.82;;;;;;;;;;5079226;28;20543;-62
2023/06/21 10:09:23;;;;;;;20.10;12.10;;;;;;;;;;5079789;28;20215;-62
2023/06/21 10:11:49;;;;;;;16.90;11.68;;;;;;;;;;5077898;28;20211;-61
2023/06/21 10:14:19;;;;;;;16.00;11.23;;;;;;;;;;5078802;28;20452;-61
2023/06/21 10:16:47;;;;;;;16.42;11.73;;;;;;;;;;5081032;28;20219;-62
2023/06/21 10:19:13;;;;;;;19.70;12.27;;;;;;;;;;5079870;28;20224;-61
2023/06/21 10:21:42;;;;;;;17.42;11.80;;;;;;;;;;5081409;28;20281;-61
2023/06/21 10:24:13;;;;;;;19.67;12.80;;;;;;;;;;5080825;28;20212;-61
2023/06/21 10:26:39;;;;;;;20.42;13.95;;;;;;;;;;5080518;28;20392;-62
2023/06/21 10:29:08;;;;;;;18.08;12.32;;;;;;;;;;5080983;28;20262;-61
2023/06/21 10:31:38;;;;;;;21.80;13.68;;;;;;;;;;5079018;28;20203;-62
2023/06/21 10:34:06;;;;;;;18.48;12.68;;;;;;;;;;5081101;28;20208;-61
2023/06/21 10:36:35;;;;;;;13.50;11.63;;;;;;;;;;5080327;28;20212;-61
2023/06/21 10:39:08;;;;;;;20.23;12.10;;;;;;;;;;5080163;28;20224;-62
2023/06/21 10:41:34;;;;;;;18.48;12.00;;;;;;;;;;5080383;28;20211;-62
2023/06/21 10:44:01;;;;;;;13.00;11.25;;;;;;;;;;5081042;28;20577;-61
2023/06/21 10:46:29;;;;;;;10.73;9.02;;;;;;;;;;5081230;28;20200;-62
2023/06/21 10:48:55;;;;;;;11.38;9.27;;;;;;;;;;5080859;28;20249;-62
2023/06/21 10:51:22;;;;;;;10.88;9.45;;;;;;;;;;5081683;28;20474;-61
2023/06/21 10:53:48;;;;;;;13.32;9.15;;;;;;;;;;5080800;28;20238;-62
2023/06/21 10:56:16;;;;;;;15.48;10.38;;;;;;;;;;5080887;28;20211;-62
2023/06/21 10:58:43;;;;;;;12.63;10.15;;;;;;;;;;5080026;28;20485;-62
2023/06/21 11:01:10;;;;;;;10.82;9.70;;;;;;;;;;5081428;28;20212;-62
2023/06/21 11:03:36;;;;;;;13.95;10.18;;;;;;;;;;5078147;28;20204;-59
2023/06/21 11:06:17;;;;;;;17.63;10.77;;;;;;;;;;5077964;28;20439;-61
2023/06/21 11:08:43;;;;;;;19.55;10.75;;;;;;;;;;5077935;28;20427;-60
2023/06/21 11:11:27;;;;;;;13.68;10.35;;;;;;;;;;5076467;28;20203;-60
2023/06/21 11:13:54;;;;;;;11.52;9.60;;;;;;;;;;5072965;28;20443;-59
2023/06/21 11:16:24;;;;;;;13.15;10.27;;;;;;;;;;5077554;28;20208;-60
2023/06/21 11:18:55;;;;;;;20.92;11.45;;;;;;;;;;5076707;28;20238;-60
2023/06/21 11:21:34;;;;;;;14.02;10.48;;;;;;;;;;5077343;28;20211;-61
2023/06/21 11:24:05;;;;;;;12.68;10.95;;;;;;;;;;5077130;28;20541;-61
2023/06/21 11:26:51;;;;;;;16.35;10.63;;;;;;;;;;5075877;28;20261;-61
2023/06/21 11:29:19;;;;;;;15.27;9.70;;;;;;;;;;5077480;28;20208;-62
2023/06/21 11:31:45;;;;;;;16.63;10.77;;;;;;;;;;5081529;28;20211;-62
2023/06/21 11:34:23;;;;;;;12.27;9.82;;;;;;;;;;5081494;28;20257;-62
2023/06/21 11:36:49;;;;;;;13.73;9.75;;;;;;;;;;5082162;28;20245;-61
2023/06/21 11:39:28;;;;;;;14.63;9.75;;;;;;;;;;5079128;28;20265;-62
2023/06/21 11:41:58;;;;;;;15.18;10.73;;;;;;;;;;5080758;28;20433;-63
2023/06/21 11:44:27;;;;;;;11.80;10.60;;;;;;;;;;5081943;28;20211;-61
2023/06/21 11:47:03;;;;;;;18.70;10.60;;;;;;;;;;5079866;28;20250;-61
2023/06/21 11:49:31;;;;;;;13.13;9.90;;;;;;;;;;5081214;28;20195;-62
2023/06/21 11:52:01;;;;;;;13.05;10.40;;;;;;;;;;5080103;28;20211;-62
2023/06/21 11:54:31;;;;;;;19.35;10.15;;;;;;;;;;5080022;28;20215;-61
2023/06/21 11:56:58;;;;;;;13.32;9.82;;;;;;;;;;5080060;28;20212;-62
2023/06/21 11:59:26;;;;;;;10.63;9.52;;;;;;;;;;5079375;28;20546;-62
2023/06/21 12:01:52;;;;;;;14.23;9.65;;;;;;;;;;5080262;28;20290;-62
2023/06/21 12:04:24;;;;;;;14.43;8.73;;;;;;;;;;5080985;28;20246;-62
2023/06/21 12:06:50;;;;;;;10.20;8.45;;;;;;;;;;5079429;28;20215;-61
2023/06/21 12:09:17;;;;;;;10.27;8.00;;;;;;;;;;5080194;28;20262;-62
2023/06/21 12:11:47;;;;;;;12.90;8.98;;;;;;;;;;5079918;28;20228;-62
2023/06/21 12:14:13;;;;;;;11.77;8.10;;;;;;;;;;5079300;28;20212;-63
2023/06/21 12:16:41;;;;;;;10.85;8.13;;;;;;;;;;5079112;28;20216;-63
2023/06/21 12:19:08;;;;;;;10.73;8.85;;;;;;;;;;5078872;28;20228;-63
2023/06/21 12:21:34;;;;;;;10.40;8.00;;;;;;;;;;5079506;28;20208;-62
2023/06/21 12:24:00;;;;;;;11.30;8.20;;;;;;;;;;5078967;28;20920;-63
2023/06/21 12:26:27;;;;;;;13.32;8.10;;;;;;;;;;5078320;28;20215;-63
2023/06/21 12:28:53;;;;;;;11.65;8.55;;;;;;;;;;5078695;28;20211;-63
2023/06/21 12:31:20;;;;;;;12.13;7.28;;;;;;;;;;5079086;28;20215;-63
2023/06/21 12:36:51;;;;;;;10.27;7.90;;;;;;;;;;5071392;28;20617;-62
2023/06/21 12:39:19;;;;;;;9.80;7.35;;;;;;;;;;5076422;28;20327;-62
2023/06/21 12:41:45;;;;;;;10.02;7.35;;;;;;;;;;5076080;28;20200;-63
2023/06/21 12:44:18;;;;;;;9.25;6.80;;;;;;;;;;5075494;28;20215;-62
2023/06/21 12:46:45;;;;;;;11.18;7.85;;;;;;;;;;5076575;28;20207;-62
2023/06/21 12:49:12;;;;;;;11.90;7.00;;;;;;;;;;5067762;28;20213;-62
2023/06/21 12:51:38;;;;;;;10.80;7.57;;;;;;;;;;5078845;28;20537;-62
2023/06/21 12:54:06;;;;;;;10.32;7.57;;;;;;;;;;5081710;28;20211;-62
2023/06/21 12:56:33;;;;;;;12.15;7.25;;;;;;;;;;5074926;28;20204;-62
2023/06/21 12:59:00;;;;;;;9.70;7.78;;;;;;;;;;5081018;28;20256;-62
2023/06/21 13:01:27;;;;;;;8.00;7.05;;;;;;;;;;5080803;28;20279;-62
2023/06/21 13:03:53;;;;;;;13.20;6.90;;;;;;;;;;5081315;28;20210;-62
2023/06/21 13:06:19;;;;;;;7.30;6.60;;;;;;;;;;5080198;28;20257;-62
2023/06/21 13:08:46;;;;;;;9.45;6.97;;;;;;;;;;5080056;28;20214;-63
2023/06/21 13:11:13;;;;;;;10.57;6.55;;;;;;;;;;5079684;28;20207;-64
2023/06/21 13:13:41;;;;;;;12.43;6.18;;;;;;;;;;5081181;28;20204;-64
2023/06/21 13:16:09;;;;;;;8.80;5.97;;;;;;;;;;5081903;28;20322;-64
2023/06/21 13:18:35;;;;;;;7.93;6.43;;;;;;;;;;5081797;28;20527;-64
2023/06/21 13:21:02;;;;;;;12.00;6.45;;;;;;;;;;5081103;28;20204;-62
2023/06/21 13:23:28;;;;;;;7.95;6.40;;;;;;;;;;5081568;28;20523;-62
2023/06/21 13:25:55;;;;;;;7.53;6.57;;;;;;;;;;5082013;28;20203;-62
2023/06/21 13:28:23;;;;;;;10.15;6.10;;;;;;;;;;5081693;28;20228;-62
2023/06/21 13:30:50;;;;;;;6.93;6.22;;;;;;;;;;5076417;28;20517;-62
2023/06/21 13:33:16;;;;;;;6.90;6.20;;;;;;;;;;5082366;28;20208;-62
2023/06/21 13:35:42;;;;;;;7.47;5.78;;;;;;;;;;5081482;28;20208;-62
2023/06/21 13:38:09;;;;;;;9.05;6.85;;;;;;;;;;5081404;28;20231;-62
2023/06/21 13:40:35;;;;;;;8.98;6.10;;;;;;;;;;5082014;28;20226;-62
2023/06/21 13:43:02;;;;;;;7.00;6.40;;;;;;;;;;5082464;28;20219;-63
2023/06/21 13:45:29;;;;;;;7.03;6.35;;;;;;;;;;5082640;28;20579;-63
2023/06/21 13:47:55;;;;;;;7.75;6.63;;;;;;;;;;5081474;28;20204;-62
2023/06/21 13:50:22;;;;;;;6.93;5.97;;;;;;;;;;5081708;28;20210;-62
2023/06/21 13:52:48;;;;;;;7.88;6.25;;;;;;;;;;5080735;28;20210;-62
2023/06/21 13:55:14;;;;;;;9.35;6.20;;;;;;;;;;5081542;28;20199;-62
2023/06/21 13:57:41;;;;;;;7.68;6.85;;;;;;;;;;5080727;28;20215;-62
2023/06/21 14:00:13;;;;;;;8.05;6.43;;;;;;;;;;5080742;28;20235;-62
2023/06/21 14:02:40;;;;;;;8.77;6.30;;;;;;;;;;5076274;28;20200;-63
2023/06/21 14:05:07;;;;;;;6.15;5.65;;;;;;;;;;5083178;28;20215;-63
2023/06/21 14:07:34;;;;;;;6.90;6.00;;;;;;;;;;5080792;28;20905;-61
2023/06/21 14:10:00;;;;;;;9.57;6.18;;;;;;;;;;5082242;28;20204;-62
2023/06/21 14:12:26;;;;;;;6.78;6.18;;;;;;;;;;5081623;28;20263;-61
2023/06/21 14:14:53;;;;;;;6.22;5.82;;;;;;;;;;5081239;28;20206;-72
2023/06/21 14:17:19;;;;;;;6.35;5.80;;;;;;;;;;5080716;28;20204;-72
2023/06/21 14:19:46;;;;;;;7.25;5.82;;;;;;;;;;5081430;28;20593;-72
2023/06/21 14:22:14;;;;;;;6.75;6.07;;;;;;;;;;5080701;28;20214;-72
2023/06/21 14:24:40;;;;;;;6.75;6.10;;;;;;;;;;5081171;28;20306;-72
2023/06/21 14:27:06;;;;;;;11.52;6.80;;;;;;;;;;5081336;28;20235;-72
2023/06/21 14:29:33;;;;;;;7.78;6.97;;;;;;;;;;5080726;28;20450;-72
2023/06/21 14:31:59;;;;;;;6.78;6.07;;;;;;;;;;5080364;28;20200;-72
2023/06/21 14:34:25;;;;;;;7.97;6.22;;;;;;;;;;5080973;28;20216;-72